Time;durP1;ratioP1;P1;durP2;ratioP2;P2;SDS_P1;SDS_P2;PMS_P1;PMS_P2;Temp;Humidity;BMP_temperature;BMP_pressure;BME280_temperature;BME280_humidity;BME280_pressure;Samples;Min_cycle;Max_cycle;Signal;HPM_P1;HPM_P2
2021/12/23 00:01:21;;;;;;;24.17;15.55;;;;;;;0.14;71.84;101331.25;5089973;28;20019;-91
2021/12/23 00:03:46;;;;;;;25.33;14.75;;;;;;;0.07;72.08;101318.00;5077841;28;20051;-91
2021/12/23 00:06:11;;;;;;;25.30;14.75;;;;;;;0.13;72.23;101330.34;5077957;28;20034;-91
2021/12/23 00:08:36;;;;;;;23.38;14.82;;;;;;;0.08;71.93;101317.22;5091439;28;20015;-91
2021/12/23 00:11:02;;;;;;;21.98;13.77;;;;;;;0.15;72.17;101326.13;5077394;28;20474;-91
2021/12/23 00:13:27;;;;;;;24.20;14.80;;;;;;;0.10;72.06;101318.16;5079303;28;20037;-91
2021/12/23 00:23:53;;;;;;;25.92;15.45;;;;;;;0.10;72.04;101297.38;5100398;28;20038;-91
2021/12/23 00:26:18;;;;;;;23.30;14.73;;;;;;;0.08;71.98;101292.97;5081102;28;20118;-91
2021/12/23 00:28:44;;;;;;;23.38;14.35;;;;;;;0.14;71.89;101297.53;5077477;28;20020;-90
2021/12/23 00:31:09;;;;;;;22.40;14.57;;;;;;;0.06;72.07;101277.31;5077108;28;20511;-91
2021/12/23 00:33:36;;;;;;;20.73;14.50;;;;;;;0.14;72.13;101287.16;5094548;28;21668;-90
2021/12/23 00:36:04;;;;;;;22.08;14.68;;;;;;;0.05;72.27;101265.19;5078755;28;20089;-90
2021/12/23 00:38:34;;;;;;;23.85;15.50;;;;;;;0.12;72.31;101290.56;5080599;28;20027;-90
2021/12/23 00:41:02;;;;;;;24.92;14.68;;;;;;;0.12;72.35;101280.19;5077970;28;20012;-90
2021/12/23 00:43:29;;;;;;;23.90;15.35;;;;;;;0.05;71.68;101265.19;5067811;28;20016;-91
2021/12/23 00:45:54;;;;;;;20.23;14.35;;;;;;;0.02;71.88;101267.63;5078075;28;20015;-91
2021/12/23 00:48:19;;;;;;;21.27;13.50;;;;;;;0.06;72.30;101279.03;5077577;28;20027;-91
2021/12/23 00:50:46;;;;;;;18.15;13.45;;;;;;;0.03;71.79;101279.78;5080041;28;20023;-91
2021/12/23 00:53:16;;;;;;;24.08;14.43;;;;;;;0.03;72.19;101290.16;5080070;28;20016;-91
2021/12/23 00:55:42;;;;;;;20.40;13.80;;;;;;;0.04;72.08;101298.84;5080836;28;20081;-91
2021/12/23 00:58:07;;;;;;;23.35;13.98;;;;;;;0.06;72.31;101290.28;5080169;28;20534;-91
2021/12/23 01:00:36;;;;;;;23.00;14.18;;;;;;;0.04;72.04;101288.47;5080007;28;20069;-91
2021/12/23 01:03:03;;;;;;;25.02;14.45;;;;;;;0.03;72.15;101284.97;5102336;28;20022;-91
2021/12/23 01:05:35;;;;;;;21.25;14.15;;;;;;;0.04;72.12;101285.88;5078075;28;20069;-91
2021/12/23 01:08:01;;;;;;;23.73;13.30;;;;;;;0.05;72.44;101280.75;5076665;28;20020;-91
2021/12/23 01:10:27;;;;;;;21.95;14.02;;;;;;;0.02;71.78;101271.94;5066884;28;20121;-91
2021/12/23 01:12:58;;;;;;;22.38;15.02;;;;;;;0.01;72.26;101263.28;5077411;28;20019;-91
2021/12/23 01:17:56;;;;;;;22.73;13.02;;;;;;;-0.02;72.01;101255.34;5096899;28;20058;-91
2021/12/23 01:20:29;;;;;;;19.58;13.02;;;;;;;0.03;72.12;101253.84;5074010;28;20027;-91
2021/12/23 01:23:00;;;;;;;21.58;12.95;;;;;;;-0.08;71.93;101227.44;5095327;28;20027;-91
2021/12/23 01:25:26;;;;;;;21.67;13.93;;;;;;;0.05;72.31;101239.25;5069861;28;20576;-90
2021/12/23 01:27:52;;;;;;;21.55;12.98;;;;;;;-0.03;72.23;101222.47;5093965;28;20050;-91
2021/12/23 01:30:18;;;;;;;19.75;12.60;;;;;;;0.03;72.03;101233.09;5075652;28;20413;-92
2021/12/23 01:32:45;;;;;;;21.20;13.63;;;;;;;-0.02;71.86;101221.63;5076061;28;20089;-91
2021/12/23 01:35:10;;;;;;;18.35;12.48;;;;;;;-0.01;72.06;101226.00;5096317;28;20522;-91
2021/12/23 01:37:36;;;;;;;20.63;12.93;;;;;;;-0.13;72.16;101206.50;5075812;28;20036;-91
2021/12/23 01:40:01;;;;;;;23.90;13.52;;;;;;;-0.05;71.80;101213.72;5079227;28;20050;-91
2021/12/23 01:42:26;;;;;;;20.17;12.60;;;;;;;-0.02;71.79;101213.88;5074952;28;20015;-91
2021/12/23 01:44:51;;;;;;;19.95;12.90;;;;;;;-0.03;71.88;101206.91;5077230;28;20020;-91
2021/12/23 01:47:17;;;;;;;22.33;13.40;;;;;;;-0.10;72.00;101202.28;5076419;28;20055;-91
2021/12/23 01:49:42;;;;;;;20.08;14.05;;;;;;;-0.06;71.94;101206.78;5088589;28;20019;-92
2021/12/23 01:52:20;;;;;;;20.23;13.40;;;;;;;-0.08;71.82;101200.63;5074456;28;20504;-91
2021/12/23 01:54:46;;;;;;;22.67;12.98;;;;;;;-0.05;71.73;101204.25;5090529;28;20020;-91
2021/12/23 01:57:12;;;;;;;20.20;12.10;;;;;;;-0.16;72.18;101183.00;5078548;28;20030;-91
2021/12/23 01:59:37;;;;;;;19.70;12.98;;;;;;;-0.02;72.20;101203.47;5078195;28;20073;-91
2021/12/23 02:02:03;;;;;;;20.75;12.82;;;;;;;-0.08;72.13;101187.66;5074516;28;20015;-91
2021/12/23 02:04:28;;;;;;;19.05;12.07;;;;;;;-0.11;72.07;101172.00;5078884;28;20019;-91
2021/12/23 02:06:53;;;;;;;19.77;12.48;;;;;;;-0.05;71.87;101180.91;5077640;28;20027;-91
2021/12/23 02:09:19;;;;;;;20.27;12.18;;;;;;;-0.15;72.16;101156.28;5095141;28;20465;-91
2021/12/23 02:11:45;;;;;;;21.10;12.50;;;;;;;-0.07;72.17;101166.09;5074136;28;20119;-91
2021/12/23 02:14:10;;;;;;;19.92;12.30;;;;;;;-0.07;72.18;101159.19;5078291;28;20027;-92
2021/12/23 02:16:36;;;;;;;18.88;11.85;;;;;;;-0.16;72.17;101135.47;5073922;28;20386;-90
2021/12/23 02:19:16;;;;;;;20.27;13.10;;;;;;;-0.03;71.80;101153.31;5066768;28;20036;-90
2021/12/23 02:21:42;;;;;;;21.70;13.27;;;;;;;-0.07;71.98;101142.75;5078158;28;20019;-90
2021/12/23 02:24:08;;;;;;;22.73;12.30;;;;;;;-0.13;72.00;101133.88;5073523;28;20073;-91
2021/12/23 02:26:37;;;;;;;19.95;12.85;;;;;;;-0.16;71.71;101123.38;5074927;28;20020;-91
2021/12/23 02:29:02;;;;;;;20.75;12.13;;;;;;;-0.11;72.22;101127.91;5090273;28;20053;-91
2021/12/23 02:31:28;;;;;;;21.38;13.18;;;;;;;-0.07;71.99;101134.97;5075998;28;20031;-91
2021/12/23 02:33:53;;;;;;;22.30;13.60;;;;;;;-0.15;72.02;101129.47;5076026;28;20240;-91
2021/12/23 02:36:18;;;;;;;22.55;13.43;;;;;;;-0.09;71.75;101124.53;5074140;28;20111;-91
2021/12/23 02:38:44;;;;;;;20.40;12.07;;;;;;;-0.11;72.26;101109.75;5072072;28;20466;-91
2021/12/23 02:41:09;;;;;;;19.50;13.02;;;;;;;-0.14;71.93;101101.00;5084559;28;20023;-91
2021/12/23 02:43:36;;;;;;;19.08;12.55;;;;;;;-0.08;71.99;101099.47;5074163;28;20059;-91
2021/12/23 02:46:02;;;;;;;20.73;12.65;;;;;;;-0.20;72.15;101074.81;5076007;28;20028;-91
2021/12/23 02:48:32;;;;;;;20.88;12.63;;;;;;;-0.11;71.93;101076.91;5075406;28;20097;-92
2021/12/23 02:50:57;;;;;;;20.70;12.38;;;;;;;-0.08;72.15;101083.91;5075551;28;20019;-92
2021/12/23 02:53:23;;;;;;;19.33;12.18;;;;;;;-0.06;71.91;101082.28;5071274;28;20355;-91
2021/12/23 02:55:49;;;;;;;17.38;10.95;;;;;;;-0.15;71.80;101059.44;5076445;28;20502;-91
2021/12/23 02:58:15;;;;;;;21.88;13.32;;;;;;;-0.06;71.91;101056.34;5068789;28;20039;-91
2021/12/23 03:00:44;;;;;;;17.52;11.90;;;;;;;-0.15;71.90;101049.06;5074929;28;20061;-91
2021/12/23 03:03:09;;;;;;;20.00;12.10;;;;;;;-0.13;72.26;101048.31;5077406;28;20019;-91
2021/12/23 03:05:34;;;;;;;19.67;12.77;;;;;;;-0.13;72.09;101045.72;5077809;28;20023;-91
2021/12/23 03:08:00;;;;;;;19.52;12.40;;;;;;;-0.21;71.88;101036.75;5071213;28;20039;-91
2021/12/23 03:10:26;;;;;;;21.17;12.55;;;;;;;-0.15;71.98;101038.72;5077852;28;20012;-91
2021/12/23 03:12:52;;;;;;;20.13;12.40;;;;;;;-0.08;72.46;101057.97;5077428;28;20035;-91
2021/12/23 03:15:18;;;;;;;17.67;11.30;;;;;;;-0.24;72.09;101034.03;5075066;28;20023;-91
2021/12/23 03:17:43;;;;;;;19.35;12.02;;;;;;;-0.13;71.96;101056.09;5074774;28;20012;-91
2021/12/23 03:20:09;;;;;;;20.05;11.95;;;;;;;-0.24;72.18;101028.84;5074139;28;20378;-91
2021/12/23 03:22:34;;;;;;;20.55;12.93;;;;;;;-0.10;71.55;101042.34;5076274;28;20492;-89
2021/12/23 03:25:00;;;;;;;20.48;12.07;;;;;;;-0.18;71.93;101029.09;5094526;28;20058;-91
2021/12/23 03:27:32;;;;;;;20.15;12.25;;;;;;;-0.11;71.91;101037.13;5077672;28;20050;-91
2021/12/23 03:29:57;;;;;;;18.27;11.77;;;;;;;-0.22;72.12;101014.25;5090197;28;20090;-91
2021/12/23 03:32:23;;;;;;;16.67;11.35;;;;;;;-0.22;72.19;101009.06;5063404;28;20061;-91
2021/12/23 03:34:49;;;;;;;17.77;11.07;;;;;;;-0.18;71.74;101010.06;5075377;28;20168;-91
2021/12/23 03:37:14;;;;;;;19.83;12.60;;;;;;;-0.17;72.00;101017.03;5078092;28;20123;-91
2021/12/23 03:39:40;;;;;;;18.63;11.68;;;;;;;-0.24;72.29;100989.94;5081150;28;20034;-91
2021/12/23 03:42:05;;;;;;;17.52;11.48;;;;;;;-0.23;72.11;101002.13;5079781;28;20031;-90
2021/12/23 03:44:31;;;;;;;17.73;11.80;;;;;;;-0.18;72.22;100995.41;5079102;28;20450;-89
2021/12/23 03:46:56;;;;;;;19.23;11.90;;;;;;;-0.18;71.95;100985.03;5077939;28;20027;-91
2021/12/23 03:49:21;;;;;;;15.65;10.45;;;;;;;-0.31;71.75;100969.78;5080936;28;20069;-90
2021/12/23 03:51:47;;;;;;;18.73;12.35;;;;;;;-0.19;71.75;100983.25;5078117;28;20035;-91
2021/12/23 03:54:12;;;;;;;17.83;11.43;;;;;;;-0.23;71.80;100976.19;5075584;28;20474;-91
2021/12/23 03:56:37;;;;;;;17.90;11.43;;;;;;;-0.22;71.83;100964.97;5094566;28;20243;-90
2021/12/23 03:59:03;;;;;;;17.67;11.20;;;;;;;-0.26;71.88;100950.13;5079266;28;20024;-90
2021/12/23 04:01:29;;;;;;;18.85;11.52;;;;;;;-0.27;72.01;100953.53;5076350;27;20441;-90
2021/12/23 04:03:55;;;;;;;18.02;11.02;;;;;;;-0.15;72.19;100969.59;5078269;28;20099;-90
2021/12/23 04:06:21;;;;;;;18.85;11.57;;;;;;;-0.20;71.67;100957.28;5070307;28;20490;-91
2021/12/23 04:08:47;;;;;;;18.60;11.32;;;;;;;-0.17;72.01;100954.81;5078411;28;20531;-92
2021/12/23 04:11:12;;;;;;;15.55;10.38;;;;;;;-0.19;72.04;100941.78;5076156;28;20019;-89
2021/12/23 04:13:38;;;;;;;18.10;11.30;;;;;;;-0.22;71.99;100941.66;5077874;28;20051;-91
2021/12/23 04:16:03;;;;;;;16.05;10.73;;;;;;;-0.25;72.13;100938.94;5081161;28;20023;-91
2021/12/23 04:18:28;;;;;;;18.85;11.55;;;;;;;-0.23;71.90;100939.88;5079565;28;20039;-90
2021/12/23 04:20:54;;;;;;;18.08;11.50;;;;;;;-0.36;71.94;100903.94;5079122;28;20112;-92
2021/12/23 04:23:21;;;;;;;19.58;12.05;;;;;;;-0.28;71.81;100912.88;5077428;28;20050;-91
2021/12/23 04:25:46;;;;;;;17.40;11.20;;;;;;;-0.22;71.88;100912.22;5089071;28;20035;-91
2021/12/23 04:28:12;;;;;;;16.00;10.98;;;;;;;-0.36;71.70;100876.31;5079281;28;20023;-91
2021/12/23 04:30:37;;;;;;;16.42;11.75;;;;;;;-0.36;72.15;100883.19;5074465;28;20362;-89
2021/12/23 04:33:19;;;;;;;17.90;12.15;;;;;;;-0.30;72.17;100888.63;5076720;28;20131;-91
2021/12/23 04:35:44;;;;;;;18.40;12.48;;;;;;;-0.27;72.11;100879.25;5071055;28;20028;-90
2021/12/23 04:38:09;;;;;;;18.60;11.77;;;;;;;-0.30;71.82;100875.66;5071366;28;20019;-90
2021/12/23 04:40:35;;;;;;;18.60;11.15;;;;;;;-0.31;72.17;100873.88;5073746;28;20077;-90
2021/12/23 04:43:02;;;;;;;16.02;11.27;;;;;;;-0.22;71.65;100889.81;5079215;28;20049;-90
2021/12/23 04:45:28;;;;;;;17.60;10.70;;;;;;;-0.22;72.34;100894.97;5072636;28;20367;-90
2021/12/23 04:47:53;;;;;;;18.25;11.48;;;;;;;-0.27;72.08;100865.38;5079341;28;20085;-90
2021/12/23 04:50:18;;;;;;;17.77;11.43;;;;;;;-0.36;72.31;100846.91;5089718;28;20031;-89
2021/12/23 04:52:44;;;;;;;17.80;11.25;;;;;;;-0.37;71.82;100846.00;5079586;28;20088;-88
2021/12/23 04:55:11;;;;;;;15.90;10.88;;;;;;;-0.30;71.79;100863.56;5080037;28;20015;-89
2021/12/23 04:57:36;;;;;;;17.73;10.77;;;;;;;-0.34;72.00;100845.28;5087814;28;20023;-88
2021/12/23 05:00:08;;;;;;;18.02;11.25;;;;;;;-0.27;71.96;100853.31;5070587;28;20042;-89
2021/12/23 05:02:33;;;;;;;15.98;11.40;;;;;;;-0.28;71.74;100858.44;5085056;28;20402;-89
2021/12/23 05:04:59;;;;;;;17.98;10.85;;;;;;;-0.30;71.96;100842.81;5079430;28;20016;-90
2021/12/23 05:07:24;;;;;;;17.42;10.52;;;;;;;-0.26;72.07;100854.22;5080044;28;20015;-91
2021/12/23 05:09:50;;;;;;;18.25;10.45;;;;;;;-0.30;72.19;100824.69;5072929;28;20035;-90
2021/12/23 05:12:28;;;;;;;16.65;10.95;;;;;;;-0.32;72.18;100836.72;5069697;28;20031;-89
2021/12/23 05:14:53;;;;;;;17.95;11.85;;;;;;;-0.24;72.04;100849.09;5078946;28;20106;-90
2021/12/23 05:17:18;;;;;;;20.42;11.98;;;;;;;-0.34;72.00;100816.75;5078155;28;20047;-90
2021/12/23 05:19:43;;;;;;;16.65;10.55;;;;;;;-0.35;72.05;100814.97;5072278;28;20031;-91
2021/12/23 05:22:09;;;;;;;16.95;11.02;;;;;;;-0.27;72.11;100839.47;5077794;28;20038;-90
2021/12/23 05:24:34;;;;;;;18.88;10.52;;;;;;;-0.43;71.87;100800.00;5077395;28;20032;-89
2021/12/23 05:27:00;;;;;;;17.73;10.40;;;;;;;-0.42;72.37;100794.03;5094991;28;20470;-90
2021/12/23 05:29:25;;;;;;;17.00;11.13;;;;;;;-0.35;72.04;100794.22;5073356;28;20008;-89
2021/12/23 05:31:52;;;;;;;17.05;10.38;;;;;;;-0.32;72.12;100799.53;5068445;28;20132;-90
2021/12/23 05:34:17;;;;;;;18.05;12.07;;;;;;;-0.40;72.11;100797.53;5069144;28;20027;-89
2021/12/23 05:36:43;;;;;;;17.45;11.13;;;;;;;-0.39;71.92;100778.56;5075004;28;20020;-89
2021/12/23 05:39:08;;;;;;;18.35;10.75;;;;;;;-0.28;72.45;100791.03;5078756;28;20097;-90
2021/12/23 05:41:34;;;;;;;19.83;11.40;;;;;;;-0.34;72.38;100783.06;5074954;28;20016;-90
2021/12/23 05:43:59;;;;;;;15.90;10.98;;;;;;;-0.43;72.26;100766.31;5078657;28;20024;-90
2021/12/23 05:46:26;;;;;;;17.38;11.57;;;;;;;-0.34;72.12;100786.50;5075271;28;20027;-90
2021/12/23 05:48:51;;;;;;;17.50;11.18;;;;;;;-0.33;72.20;100796.03;5077492;28;20024;-90
2021/12/23 05:51:16;;;;;;;15.75;10.20;;;;;;;-0.29;72.13;100794.47;5077169;28;20034;-90
2021/12/23 05:53:42;;;;;;;20.08;11.13;;;;;;;-0.39;72.07;100768.19;5078957;28;20027;-90
2021/12/23 05:56:07;;;;;;;14.02;10.43;;;;;;;-0.37;72.24;100770.84;5073161;28;20039;-89
2021/12/23 05:58:32;;;;;;;17.77;10.38;;;;;;;-0.33;72.34;100797.78;5078220;28;20103;-90
2021/12/23 06:00:58;;;;;;;18.58;11.05;;;;;;;-0.45;71.95;100777.44;5071273;28;20305;-89
2021/12/23 06:03:24;;;;;;;18.42;10.55;;;;;;;-0.42;72.35;100806.97;5071394;28;20027;-90
2021/12/23 06:05:50;;;;;;;17.20;10.60;;;;;;;-0.37;72.00;100801.09;5070849;28;20030;-90
2021/12/23 06:08:15;;;;;;;17.50;10.93;;;;;;;-0.48;71.87;100783.41;5076726;28;20015;-90
2021/12/23 06:10:40;;;;;;;19.48;11.65;;;;;;;-0.42;72.24;100782.75;5075097;28;20089;-89
2021/12/23 06:13:06;;;;;;;17.85;10.60;;;;;;;-0.47;72.30;100779.97;5078056;28;20030;-89
2021/12/23 06:15:31;;;;;;;16.83;10.77;;;;;;;-0.36;72.17;100776.91;5077200;28;20470;-89
2021/12/23 06:17:56;;;;;;;17.38;10.65;;;;;;;-0.43;72.00;100774.09;5075648;28;20027;-89
2021/12/23 06:20:22;;;;;;;17.00;10.45;;;;;;;-0.46;72.37;100761.03;5075242;28;20028;-89
2021/12/23 06:22:47;;;;;;;17.35;11.32;;;;;;;-0.49;72.02;100753.16;5074250;28;20027;-91
2021/12/23 06:25:12;;;;;;;16.50;11.23;;;;;;;-0.41;72.24;100769.84;5075092;28;20058;-89
2021/12/23 06:27:38;;;;;;;16.63;10.70;;;;;;;-0.42;72.27;100762.91;5074066;28;20092;-89
2021/12/23 06:30:16;;;;;;;16.50;10.77;;;;;;;-0.34;72.51;100781.31;5072516;28;20011;-91
2021/12/23 06:32:42;;;;;;;18.70;11.23;;;;;;;-0.42;72.31;100757.72;5078067;28;20387;-91
2021/12/23 06:35:08;;;;;;;15.95;10.48;;;;;;;-0.42;72.04;100752.56;5078386;28;20045;-90
2021/12/23 06:37:33;;;;;;;17.75;10.88;;;;;;;-0.40;71.98;100761.25;5076043;28;20093;-90
2021/12/23 06:39:59;;;;;;;16.70;10.40;;;;;;;-0.46;72.17;100745.50;5076059;28;20024;-90
2021/12/23 06:42:28;;;;;;;18.27;11.38;;;;;;;-0.43;72.33;100753.34;5080882;28;20036;-90
2021/12/23 06:44:54;;;;;;;19.95;11.40;;;;;;;-0.46;72.23;100744.59;5087476;28;20023;-92
2021/12/23 06:47:19;;;;;;;16.77;10.73;;;;;;;-0.49;72.41;100747.97;5076985;28;20032;-92
2021/12/23 06:49:44;;;;;;;17.25;9.85;;;;;;;-0.46;72.00;100745.50;5077611;28;20024;-92
2021/12/23 06:52:10;;;;;;;18.52;10.50;;;;;;;-0.35;72.20;100760.53;5078348;28;20032;-91
2021/12/23 06:54:41;;;;;;;13.55;9.90;;;;;;;-0.45;72.23;100747.25;5079511;28;20031;-91
2021/12/23 06:57:07;;;;;;;16.30;10.18;;;;;;;-0.49;72.32;100739.28;5091366;28;20066;-91
2021/12/23 06:59:32;;;;;;;16.33;10.80;;;;;;;-0.52;72.11;100738.38;5082003;28;20031;-92
2021/12/23 07:02:10;;;;;;;15.32;9.82;;;;;;;-0.49;72.13;100744.47;5085268;28;20015;-91
2021/12/23 07:04:36;;;;;;;14.55;9.52;;;;;;;-0.40;72.20;100755.19;5083736;28;20133;-90
2021/12/23 07:07:09;;;;;;;17.00;10.60;;;;;;;-0.51;72.39;100731.47;5077720;28;20024;-90
2021/12/23 07:09:40;;;;;;;15.65;10.52;;;;;;;-0.44;72.25;100751.59;5073222;28;20044;-89
2021/12/23 07:12:07;;;;;;;16.27;9.93;;;;;;;-0.40;72.12;100750.88;5075446;28;20019;-90
2021/12/23 07:14:32;;;;;;;15.25;10.68;;;;;;;-0.39;72.23;100757.81;5067173;28;20019;-90
2021/12/23 07:16:58;;;;;;;13.93;9.10;;;;;;;-0.40;72.32;100750.88;5088995;28;20064;-90
2021/12/23 07:19:24;;;;;;;15.80;9.68;;;;;;;-0.47;72.46;100738.50;5092519;28;20016;-90
2021/12/23 07:21:50;;;;;;;15.88;9.90;;;;;;;-0.54;72.27;100727.06;5061316;28;20048;-90
2021/12/23 07:24:16;;;;;;;15.27;9.57;;;;;;;-0.48;72.30;100736.75;5073611;28;20081;-89
2021/12/23 07:26:41;;;;;;;17.23;9.50;;;;;;;-0.40;72.07;100742.25;5072898;28;20020;-90
2021/12/23 07:29:29;;;;;;;16.92;9.98;;;;;;;-0.39;72.47;100733.63;5052313;28;20027;-90
2021/12/23 07:32:03;;;;;;;13.30;9.68;;;;;;;-0.47;72.19;100728.16;5056918;28;20124;-89
2021/12/23 07:34:29;;;;;;;17.58;10.32;;;;;;;-0.50;72.17;100712.47;5055665;28;20081;-90
2021/12/23 07:36:55;;;;;;;13.27;9.70;;;;;;;-0.57;72.24;100692.38;5055790;28;20078;-93
2021/12/23 07:39:20;;;;;;;18.02;10.35;;;;;;;-0.51;72.40;100684.81;5058893;28;20020;-90
2021/12/23 07:41:49;;;;;;;15.57;9.35;;;;;;;-0.52;72.02;100683.06;5058275;28;20024;-90
2021/12/23 07:47:37;;;;;;;;;;;;;;;-0.43;72.53;100705.84;5082826;28;20039;-92
2021/12/23 07:50:03;;;;;;;13.00;9.15;;;;;;;-0.52;72.31;100690.84;5057144;28;20423;-93
2021/12/23 07:52:28;;;;;;;12.93;9.13;;;;;;;-0.52;72.62;100688.25;5056492;28;20044;-91
2021/12/23 07:54:54;;;;;;;14.38;9.48;;;;;;;-0.52;72.26;100681.38;5054406;28;20394;-89
2021/12/23 07:57:19;;;;;;;17.15;9.88;;;;;;;-0.45;72.58;100704.88;5054523;28;20032;-90
2021/12/23 07:59:44;;;;;;;14.40;8.55;;;;;;;-0.50;72.37;100706.44;5037818;28;20407;-89
2021/12/23 08:02:10;;;;;;;14.85;9.65;;;;;;;-0.56;72.41;100691.56;5067545;28;20020;-90
2021/12/23 08:04:35;;;;;;;14.25;10.13;;;;;;;-0.48;72.18;100705.66;5057797;28;20100;-90
2021/12/23 08:07:02;;;;;;;15.32;11.23;;;;;;;-0.52;72.43;100693.44;5057695;28;20012;-92
2021/12/23 08:09:28;;;;;;;17.98;10.13;;;;;;;-0.45;72.28;100721.34;5065088;28;20021;-91
2021/12/23 08:11:54;;;;;;;15.82;9.48;;;;;;;-0.53;72.36;100699.44;5047377;28;20070;-91
2021/12/23 08:14:19;;;;;;;16.98;11.00;;;;;;;-0.50;72.60;100694.34;5051160;28;20104;-91
2021/12/23 08:16:45;;;;;;;14.05;9.88;;;;;;;-0.51;72.65;100695.19;5050048;28;20062;-92
2021/12/23 08:19:10;;;;;;;14.57;9.93;;;;;;;-0.50;72.42;100690.91;5056675;28;20024;-93
2021/12/23 08:21:36;;;;;;;14.02;8.52;;;;;;;-0.64;72.17;100670.53;5058727;28;20440;-92
2021/12/23 08:24:02;;;;;;;17.85;10.32;;;;;;;-0.54;72.25;100679.50;5077793;28;20027;-91
2021/12/23 08:26:29;;;;;;;16.23;9.52;;;;;;;-0.53;72.50;100684.75;5070466;28;20024;-90
2021/12/23 08:28:57;;;;;;;17.05;10.35;;;;;;;-0.48;72.25;100679.75;5058080;28;20017;-89
2021/12/23 08:31:24;;;;;;;14.95;9.48;;;;;;;-0.52;72.30;100670.09;5092359;28;20031;-91
2021/12/23 08:33:50;;;;;;;13.57;9.00;;;;;;;-0.53;72.57;100665.75;5058348;28;20032;-92
2021/12/23 08:36:16;;;;;;;14.27;9.68;;;;;;;-0.65;72.15;100654.13;5058814;28;20021;-93
2021/12/23 08:38:42;;;;;;;16.10;9.98;;;;;;;-0.64;72.45;100654.97;5061272;28;20023;-93
2021/12/23 08:41:15;;;;;;;17.25;10.32;;;;;;;-0.46;72.38;100678.13;5062551;28;20031;-93
2021/12/23 08:43:41;;;;;;;13.20;9.38;;;;;;;-0.55;72.36;100663.09;5075844;28;20021;-91
2021/12/23 08:46:06;;;;;;;16.08;10.40;;;;;;;-0.51;72.51;100658.91;5047782;28;20031;-90
2021/12/23 08:48:31;;;;;;;15.75;9.75;;;;;;;-0.55;72.65;100646.66;5052861;28;20074;-90
2021/12/23 08:50:57;;;;;;;14.23;9.82;;;;;;;-0.61;72.50;100625.72;5058769;28;20636;-92
2021/12/23 08:53:23;;;;;;;14.90;9.52;;;;;;;-0.49;72.67;100646.91;5045023;28;20028;-92
2021/12/23 08:55:48;;;;;;;14.65;10.00;;;;;;;-0.63;72.64;100604.97;5054035;28;20020;-91
2021/12/23 08:58:14;;;;;;;16.30;9.45;;;;;;;-0.53;72.50;100613.94;5059918;28;20020;-92
2021/12/23 09:00:40;;;;;;;18.15;10.40;;;;;;;-0.49;72.50;100615.81;5073293;28;20024;-92
2021/12/23 09:03:07;;;;;;;13.95;9.77;;;;;;;-0.49;72.22;100604.53;5067598;28;20579;-90
2021/12/23 09:05:41;;;;;;;17.42;10.35;;;;;;;-0.58;72.35;100586.97;5052994;28;20473;-91
2021/12/23 09:08:06;;;;;;;16.83;11.43;;;;;;;-0.52;72.35;100601.03;5066696;28;20058;-90
2021/12/23 09:10:33;;;;;;;15.13;10.25;;;;;;;-0.54;72.29;100597.50;5052071;28;20044;-89
2021/12/23 09:12:58;;;;;;;13.65;8.77;;;;;;;-0.57;72.32;100587.00;5059045;28;20065;-90
2021/12/23 09:15:24;;;;;;;12.63;9.63;;;;;;;-0.51;72.50;100586.34;5057560;28;20024;-91
2021/12/23 09:17:49;;;;;;;14.85;9.95;;;;;;;-0.56;72.19;100580.13;5058359;28;20501;-91
2021/12/23 09:20:17;;;;;;;13.98;9.60;;;;;;;-0.48;72.21;100588.16;5058777;28;20035;-90
2021/12/23 09:22:48;;;;;;;14.38;9.80;;;;;;;-0.50;72.50;100593.28;5058630;28;20057;-91
2021/12/23 09:25:23;;;;;;;;;;;;;;;-0.48;72.82;100586.47;5058863;28;20084;-91
2021/12/23 09:28:56;;;;;;;14.77;9.80;;;;;;;-0.68;72.36;100552.97;5055437;28;19919;-90
2021/12/23 09:33:43;;;;;;;14.85;9.88;;;;;;;-0.58;72.40;100564.53;5071535;28;20063;-89
2021/12/23 09:36:09;;;;;;;16.90;10.45;;;;;;;-0.55;72.42;100580.19;5047984;28;20051;-89
2021/12/23 09:38:42;;;;;;;15.50;9.82;;;;;;;-0.61;72.71;100563.53;5051676;28;20419;-89
2021/12/23 09:41:15;;;;;;;14.77;10.52;;;;;;;-0.51;72.38;100575.97;5067552;28;20047;-90
2021/12/23 09:43:41;;;;;;;14.27;10.13;;;;;;;-0.70;72.51;100527.84;5049053;28;20078;-90
2021/12/23 09:46:09;;;;;;;15.73;10.35;;;;;;;-0.53;72.50;100550.03;5053355;28;20034;-90
2021/12/23 09:48:34;;;;;;;15.70;10.00;;;;;;;-0.58;72.42;100543.81;5051205;28;20225;-90
2021/12/23 09:51:03;;;;;;;14.45;10.00;;;;;;;-0.50;72.51;100533.69;5059573;28;20023;-89
2021/12/23 09:53:30;;;;;;;16.85;10.68;;;;;;;-0.69;72.91;100514.06;5073946;28;20055;-90
2021/12/23 09:55:56;;;;;;;14.90;10.40;;;;;;;-0.59;72.70;100535.97;5055434;28;20051;-89
2021/12/23 09:58:22;;;;;;;17.05;11.45;;;;;;;-0.55;72.53;100533.56;5066733;28;20052;-90
2021/12/23 10:00:47;;;;;;;16.30;10.90;;;;;;;-0.59;72.54;100516.16;5053564;28;20123;-90
2021/12/23 10:03:15;;;;;;;15.05;10.07;;;;;;;-0.58;72.84;100507.53;5049874;28;20024;-90
2021/12/23 10:05:40;;;;;;;17.77;11.35;;;;;;;-0.61;72.52;100496.16;5058450;28;20017;-90
2021/12/23 10:08:07;;;;;;;18.17;11.35;;;;;;;-0.54;72.66;100501.63;5081110;28;20078;-89
2021/12/23 10:10:38;;;;;;;16.00;9.85;;;;;;;-0.54;72.69;100498.13;5070718;28;20032;-91
2021/12/23 10:27:00;;;;;;;17.52;11.27;;;;;;;-0.68;72.87;100467.50;5057037;28;20470;-89
2021/12/23 10:33:12;;;;;;;17.80;12.40;;;;;;;-0.53;72.69;100481.78;5074766;28;20050;-89
2021/12/23 10:38:33;;;;;;;16.55;11.23;;;;;;;-0.58;72.91;100465.19;5067142;28;20547;-89
2021/12/23 10:41:03;;;;;;;16.27;11.65;;;;;;;-0.52;72.97;100471.47;5052888;28;20036;-90
2021/12/23 10:43:32;;;;;;;18.52;12.20;;;;;;;-0.59;72.56;100447.91;5055097;28;20469;-90
2021/12/23 10:46:03;;;;;;;17.55;12.15;;;;;;;-0.59;72.56;100459.16;5072235;28;20470;-90
2021/12/23 10:48:31;;;;;;;17.25;11.55;;;;;;;-0.56;72.75;100453.19;5056461;28;20029;-90
2021/12/23 10:51:05;;;;;;;16.65;10.93;;;;;;;-0.53;73.09;100455.88;5057003;28;20019;-91
2021/12/23 10:53:51;;;;;;;18.08;11.35;;;;;;;-0.59;72.84;100440.13;5091339;28;20016;-91
2021/12/23 10:59:19;;;;;;;18.10;12.43;;;;;;;-0.55;72.85;100414.38;5081304;28;20551;-91
2021/12/23 11:02:07;;;;;;;17.90;12.05;;;;;;;-0.59;72.80;100403.84;5055828;28;20046;-90
2021/12/23 11:07:59;;;;;;;17.05;11.85;;;;;;;-0.59;72.76;100396.97;5068002;28;20416;-90
2021/12/23 11:35:50;;;;;;;15.68;11.95;;;;;;;-0.62;72.74;100297.53;5021754;28;20029;-91
2021/12/23 11:38:29;;;;;;;18.25;11.88;;;;;;;-0.54;72.69;100309.00;4998183;28;20051;-89
2021/12/23 11:40:59;;;;;;;17.80;12.02;;;;;;;-0.63;72.89;100286.31;5045461;28;20046;-91
2021/12/23 11:43:46;;;;;;;17.33;12.77;;;;;;;-0.69;73.04;100266.28;5054120;28;20019;-90
2021/12/23 11:46:13;;;;;;;18.08;12.02;;;;;;;-0.62;73.18;100276.81;5059453;28;20020;-91
2021/12/23 11:48:43;;;;;;;18.05;12.13;;;;;;;-0.62;73.11;100272.53;5056124;28;20034;-91
2021/12/23 11:51:15;;;;;;;18.90;12.80;;;;;;;-0.63;73.08;100264.69;5048668;28;20016;-91
2021/12/23 11:53:41;;;;;;;16.08;11.57;;;;;;;-0.59;73.17;100271.72;5057464;28;20016;-91
2021/12/23 11:56:08;;;;;;;17.98;12.90;;;;;;;-0.67;72.91;100253.34;5056735;28;20020;-92
2021/12/23 11:58:34;;;;;;;18.17;11.27;;;;;;;-0.60;72.84;100264.81;5069746;28;20020;-92
2021/12/23 12:01:08;;;;;;;16.45;11.73;;;;;;;-0.57;72.87;100264.91;5061780;28;20032;-91
2021/12/23 12:03:39;;;;;;;16.98;11.07;;;;;;;-0.66;72.96;100255.13;5063828;28;20016;-91
2021/12/23 12:06:20;;;;;;;18.70;13.35;;;;;;;-0.53;73.34;100264.16;5052145;28;20039;-92
2021/12/23 12:08:45;;;;;;;18.30;12.27;;;;;;;-0.62;73.05;100254.38;5069617;28;20119;-91
2021/12/23 12:11:18;;;;;;;17.48;11.70;;;;;;;-0.60;73.22;100251.84;5059205;28;20102;-92
2021/12/23 12:13:44;;;;;;;17.05;12.45;;;;;;;-0.54;73.16;100247.72;5048378;28;20052;-92
2021/12/23 12:16:26;;;;;;;17.92;13.27;;;;;;;-0.59;72.94;100230.28;5059681;28;20165;-91
2021/12/23 12:18:52;;;;;;;18.35;12.63;;;;;;;-0.58;73.21;100222.56;5059156;28;20031;-91
2021/12/23 12:21:23;;;;;;;18.00;12.20;;;;;;;-0.70;73.22;100199.75;5054928;28;20024;-90